Time,TemperatureF,DewpointF,PressureIn,WindDirection,WindDirectionDegrees,WindSpeedMPH,WindSpeedGustMPH,Humidity,HourlyPrecipIn,Conditions,Clouds,dailyrainin,SoftwareType,DateUTC
2013-01-06 00:03:00,20.8,18.1,30.02,WNW,283,2.0,3.0,89,0.00,,SCT120,0.00,VWS V14.01,2013-01-06 06:03:00,
2013-01-06 00:08:00,21.0,18.3,30.02,WNW,298,2.0,5.0,89,0.00,,SCT120,0.00,VWS V14.01,2013-01-06 06:08:00,
2013-01-06 00:13:00,21.3,18.6,30.02,WNW,293,2.0,5.0,89,0.00,,SCT120,0.00,VWS V14.01,2013-01-06 06:13:00,
2013-01-06 00:18:00,21.6,18.9,30.02,WNW,297,3.0,5.0,89,0.00,,SCT120,0.00,VWS V14.01,2013-01-06 06:18:00,
2013-01-06 00:23:00,21.7,18.7,30.02,West,280,3.0,6.0,88,0.00,,SCT120,0.00,VWS V14.01,2013-01-06 06:23:00,
2013-01-06 00:28:00,21.8,18.8,30.03,WNW,297,6.0,6.0,88,0.00,,SCT120,0.00,VWS V14.01,2013-01-06 06:28:00,
2013-01-06 00:33:00,21.7,18.4,30.03,WNW,302,5.0,6.0,87,0.00,,SCT120,0.00,VWS V14.01,2013-01-06 06:33:00,
2013-01-06 00:38:00,21.7,18.4,30.03,NW,311,1.0,6.0,87,0.00,,SCT120,0.00,VWS V14.01,2013-01-06 06:38:00,
2013-01-06 00:43:00,21.6,18.3,30.04,WNW,302,5.0,6.0,87,0.00,,SCT120,0.00,VWS V14.01,2013-01-06 06:43:00,
2013-01-06 00:48:00,21.5,18.0,30.04,NW,318,2.0,6.0,86,0.00,,SCT120,0.00,VWS V14.01,2013-01-06 06:48:00,
2013-01-06 00:53:00,21.5,18.0,30.04,NW,318,2.0,7.0,86,0.00,,SCT120,0.00,VWS V14.01,2013-01-06 06:53:00,
2013-01-06 00:58:00,21.4,17.9,30.04,WNW,300,2.0,7.0,86,0.00,,SCT120,0.00,VWS V14.01,2013-01-06 06:58:00,
2013-01-06 01:03:00,21.3,17.8,30.04,NW,311,2.0,5.0,86,0.00,,SCT120,0.00,VWS V14.01,2013-01-06 07:03:00,
2013-01-06 01:08:00,21.2,17.7,30.04,WNW,292,4.0,7.0,86,0.00,,SCT120,0.00,VWS V14.01,2013-01-06 07:08:00,
2013-01-06 01:13:00,21.0,17.5,30.04,WNW,284,2.0,7.0,86,0.00,,SCT120,0.00,VWS V14.01,2013-01-06 07:13:00,
2013-01-06 01:18:00,20.6,17.1,30.05,WNW,295,4.0,7.0,86,0.00,,SCT120,0.00,VWS V14.01,2013-01-06 07:18:00,
2013-01-06 01:23:00,20.3,17.1,30.05,WNW,291,3.0,7.0,87,0.00,,SCT120,0.00,VWS V14.01,2013-01-06 07:23:00,
2013-01-06 01:28:00,20.1,17.1,30.05,NW,315,4.0,7.0,88,0.00,,SCT120,0.00,VWS V14.01,2013-01-06 07:28:00,
2013-01-06 01:33:00,20.1,17.1,30.05,WNW,295,4.0,6.0,88,0.00,,CLR,0.00,VWS V14.01,2013-01-06 07:33:00,
2013-01-06 01:38:00,20.1,17.1,30.05,West,281,4.0,6.0,88,0.00,,CLR,0.00,VWS V14.01,2013-01-06 07:38:00,
2013-01-06 01:43:00,20.1,17.1,30.05,WNW,301,4.0,6.0,88,0.00,,CLR,0.00,VWS V14.01,2013-01-06 07:43:00,
2013-01-06 01:48:00,20.1,17.1,30.05,WNW,291,2.0,6.0,88,0.00,,CLR,0.00,VWS V14.01,2013-01-06 07:48:00,
2013-01-06 01:53:00,20.0,17.0,30.05,NW,308,3.0,6.0,88,0.00,,CLR,0.00,VWS V14.01,2013-01-06 07:53:00,
2013-01-06 01:58:00,19.9,16.7,30.05,WNW,302,3.0,6.0,87,0.00,,CLR,0.00,VWS V14.01,2013-01-06 07:58:00,
2013-01-06 02:03:00,19.8,16.8,30.05,WNW,295,3.0,5.0,88,0.00,,CLR,0.00,VWS V14.01,2013-01-06 08:03:00,
2013-01-06 02:08:00,19.6,16.6,30.05,WNW,293,1.0,5.0,88,0.00,,CLR,0.00,VWS V14.01,2013-01-06 08:08:00,
2013-01-06 02:13:00,19.4,16.4,30.05,WNW,298,2.0,5.0,88,0.00,,CLR,0.00,VWS V14.01,2013-01-06 08:13:00,
2013-01-06 02:18:00,19.2,16.2,30.06,WNW,295,2.0,5.0,88,0.00,,CLR,0.00,VWS V14.01,2013-01-06 08:18:00,
2013-01-06 02:23:00,18.8,15.8,30.07,WNW,293,1.0,5.0,88,0.00,,CLR,0.00,VWS V14.01,2013-01-06 08:23:00,
2013-01-06 02:28:00,18.5,15.8,30.07,WNW,291,0.0,5.0,89,0.00,,CLR,0.00,VWS V14.01,2013-01-06 08:28:00,
2013-01-06 02:33:00,18.4,16.0,30.07,WNW,291,1.0,6.0,90,0.00,,CLR,0.00,VWS V14.01,2013-01-06 08:33:00,
2013-01-06 02:38:00,18.2,15.8,30.08,WNW,300,2.0,6.0,90,0.00,,CLR,0.00,VWS V14.01,2013-01-06 08:38:00,
2013-01-06 02:43:00,18.2,16.0,30.08,WNW,297,3.0,6.0,91,0.00,,CLR,0.00,VWS V14.01,2013-01-06 08:43:00,
2013-01-06 02:48:00,18.2,16.0,30.08,WNW,295,4.0,6.0,91,0.00,,CLR,0.00,VWS V14.01,2013-01-06 08:48:00,
2013-01-06 02:53:00,18.4,16.2,30.08,NW,307,5.0,6.0,91,0.00,,CLR,0.00,VWS V14.01,2013-01-06 08:53:00,
2013-01-06 02:58:00,18.4,16.2,30.08,WNW,290,3.0,6.0,91,0.00,,CLR,0.00,VWS V14.01,2013-01-06 08:58:00,
2013-01-06 03:03:00,18.5,16.3,30.08,NW,309,3.0,4.0,91,0.00,,CLR,0.00,VWS V14.01,2013-01-06 09:03:00,
2013-01-06 03:08:00,18.7,16.3,30.08,WNW,302,2.0,5.0,90,0.00,,CLR,0.00,VWS V14.01,2013-01-06 09:08:00,
2013-01-06 03:13:00,18.7,16.0,30.08,NW,307,3.0,5.0,89,0.00,,CLR,0.00,VWS V14.01,2013-01-06 09:13:00,
2013-01-06 03:18:00,18.7,16.0,30.08,West,281,2.0,5.0,89,0.00,,CLR,0.00,VWS V14.01,2013-01-06 09:18:00,
2013-01-06 03:23:00,18.6,15.9,30.08,NW,311,4.0,5.0,89,0.00,,CLR,0.00,VWS V14.01,2013-01-06 09:23:00,
2013-01-06 03:28:00,18.6,15.6,30.08,WNW,295,3.0,5.0,88,0.00,,CLR,0.00,VWS V14.01,2013-01-06 09:28:00,
2013-01-06 03:33:00,18.6,15.6,30.08,WNW,302,2.0,3.0,88,0.00,,OVC100,0.00,VWS V14.01,2013-01-06 09:33:00,
2013-01-06 03:38:00,18.5,15.6,30.08,NW,307,3.0,5.0,88,0.00,,OVC100,0.00,VWS V14.01,2013-01-06 09:38:00,
2013-01-06 03:43:00,18.3,15.4,30.09,WNW,300,3.0,7.0,88,0.00,,OVC100,0.00,VWS V14.01,2013-01-06 09:43:00,
2013-01-06 03:48:00,18.2,15.2,30.09,WNW,297,2.0,7.0,88,0.00,,OVC100,0.00,VWS V14.01,2013-01-06 09:48:00,
2013-01-06 03:53:00,18.1,15.1,30.09,WNW,300,4.0,7.0,88,0.00,,OVC100,0.00,VWS V14.01,2013-01-06 09:53:00,
2013-01-06 03:58:00,18.1,15.1,30.09,WNW,297,3.0,7.0,88,0.00,,OVC100,0.00,VWS V14.01,2013-01-06 09:58:00,
2013-01-06 04:03:00,18.2,15.2,30.10,WNW,295,5.0,6.0,88,0.00,,OVC100,0.00,VWS V14.01,2013-01-06 10:03:00,
2013-01-06 04:08:00,18.3,15.4,30.10,WNW,301,2.0,6.0,88,0.00,,OVC100,0.00,VWS V14.01,2013-01-06 10:08:00,
2013-01-06 04:13:00,18.4,15.2,30.10,NW,309,1.0,6.0,87,0.00,,OVC100,0.00,VWS V14.01,2013-01-06 10:13:00,
2013-01-06 04:18:00,18.4,15.2,30.09,WNW,293,2.0,6.0,87,0.00,,OVC100,0.00,VWS V14.01,2013-01-06 10:18:00,
2013-01-06 04:23:00,18.5,15.3,30.09,WNW,300,3.0,6.0,87,0.00,,OVC100,0.00,VWS V14.01,2013-01-06 10:23:00,
2013-01-06 04:28:00,18.5,15.0,30.09,West,265,1.0,6.0,86,0.00,,OVC100,0.00,VWS V14.01,2013-01-06 10:28:00,
2013-01-06 04:33:00,18.6,15.1,30.10,WNW,301,3.0,4.0,86,0.00,,OVC100,0.00,VWS V14.01,2013-01-06 10:33:00,
2013-01-06 04:38:00,18.5,15.0,30.10,WNW,295,2.0,5.0,86,0.00,,OVC100,0.00,VWS V14.01,2013-01-06 10:38:00,
2013-01-06 04:43:00,18.5,15.0,30.10,WNW,298,3.0,5.0,86,0.00,,OVC100,0.00,VWS V14.01,2013-01-06 10:43:00,
2013-01-06 04:48:00,18.4,14.9,30.10,NW,305,3.0,5.0,86,0.00,,OVC100,0.00,VWS V14.01,2013-01-06 10:48:00,
2013-01-06 04:53:00,18.2,14.7,30.10,WNW,297,3.0,5.0,86,0.00,,SCT110,0.00,VWS V14.01,2013-01-06 10:53:00,
2013-01-06 04:58:00,18.1,14.6,30.10,NW,305,2.0,5.0,86,0.00,,SCT110,0.00,VWS V14.01,2013-01-06 10:58:00,
2013-01-06 05:03:00,17.9,14.4,30.10,WNW,293,3.0,5.0,86,0.00,,SCT110,0.00,VWS V14.01,2013-01-06 11:03:00,
2013-01-06 05:08:00,17.7,14.2,30.11,NW,309,1.0,5.0,86,0.00,,SCT110,0.00,VWS V14.01,2013-01-06 11:08:00,
2013-01-06 05:13:00,17.6,14.4,30.11,West,281,1.0,5.0,87,0.00,,SCT110,0.00,VWS V14.01,2013-01-06 11:13:00,
2013-01-06 05:18:00,17.5,14.3,30.11,WNW,295,1.0,5.0,87,0.00,,SCT110,0.00,VWS V14.01,2013-01-06 11:18:00,
2013-01-06 05:23:00,17.3,14.1,30.11,WNW,300,3.0,5.0,87,0.00,,SCT110,0.00,VWS V14.01,2013-01-06 11:23:00,
2013-01-06 05:28:00,17.3,14.1,30.12,WNW,295,2.0,5.0,87,0.00,,SCT110,0.00,VWS V14.01,2013-01-06 11:28:00,
2013-01-06 05:33:00,17.2,14.0,30.12,WNW,295,1.0,4.0,87,0.00,,BKN120,0.00,VWS V14.01,2013-01-06 11:33:00,
2013-01-06 05:38:00,17.1,13.9,30.13,WNW,293,2.0,4.0,87,0.00,,BKN120,0.00,VWS V14.01,2013-01-06 11:38:00,
2013-01-06 05:43:00,16.9,13.7,30.13,WNW,302,1.0,4.0,87,0.00,,BKN120,0.00,VWS V14.01,2013-01-06 11:43:00,
2013-01-06 05:48:00,16.7,13.8,30.13,WNW,293,2.0,4.0,88,0.00,,BKN120,0.00,VWS V14.01,2013-01-06 11:48:00,
2013-01-06 05:53:00,16.5,13.6,30.14,WNW,285,0.0,4.0,88,0.00,,SCT110,0.00,VWS V14.01,2013-01-06 11:53:00,
2013-01-06 05:58:00,16.4,13.5,30.14,WNW,302,2.0,4.0,88,0.00,,SCT110,0.00,VWS V14.01,2013-01-06 11:58:00,
2013-01-06 06:03:00,16.2,13.3,30.14,WNW,297,1.0,2.0,88,0.00,,SCT110,0.00,VWS V14.01,2013-01-06 12:03:00,
2013-01-06 06:08:00,15.9,13.0,30.14,WNW,294,2.0,2.0,88,0.00,,SCT110,0.00,VWS V14.01,2013-01-06 12:08:00,
2013-01-06 06:13:00,15.7,13.0,30.15,WNW,291,2.0,2.0,89,0.00,,SCT110,0.00,VWS V14.01,2013-01-06 12:13:00,
2013-01-06 06:18:00,15.6,12.9,30.15,WNW,295,0.0,2.0,89,0.00,,SCT110,0.00,VWS V14.01,2013-01-06 12:18:00,
2013-01-06 06:22:00,15.3,12.6,30.15,WNW,298,1.0,2.0,89,0.00,,SCT110,0.00,VWS V14.01,2013-01-06 12:22:00,
2013-01-06 06:27:00,15.2,12.8,30.15,NW,309,0.0,3.0,90,0.00,,SCT110,0.00,VWS V14.01,2013-01-06 12:27:00,
2013-01-06 06:32:00,15.1,12.4,30.15,WNW,295,1.0,2.0,89,0.00,,CLR,0.00,VWS V14.01,2013-01-06 12:32:00,
2013-01-06 06:37:00,14.9,12.2,30.15,WNW,300,2.0,2.0,89,0.00,,CLR,0.00,VWS V14.01,2013-01-06 12:37:00,
2013-01-06 06:42:00,14.7,11.8,30.15,WNW,295,1.0,3.0,88,0.00,,CLR,0.00,VWS V14.01,2013-01-06 12:42:00,
2013-01-06 06:47:00,14.7,11.8,30.16,WNW,291,2.0,3.0,88,0.00,,CLR,0.00,VWS V14.01,2013-01-06 12:47:00,
2013-01-06 06:52:00,14.8,11.6,30.16,WNW,295,2.0,3.0,87,0.00,,CLR,0.00,VWS V14.01,2013-01-06 12:52:00,
2013-01-06 06:57:00,14.7,11.3,30.16,NW,315,1.0,3.0,86,0.00,,CLR,0.00,VWS V14.01,2013-01-06 12:57:00,
2013-01-06 07:02:00,14.7,11.3,30.17,WNW,298,1.0,4.0,86,0.00,,CLR,0.00,VWS V14.01,2013-01-06 13:02:00,
2013-01-06 07:07:00,14.5,11.1,30.17,WNW,298,0.0,4.0,86,0.00,,CLR,0.00,VWS V14.01,2013-01-06 13:07:00,
2013-01-06 07:12:00,14.4,11.0,30.17,NW,307,1.0,4.0,86,0.00,,CLR,0.00,VWS V14.01,2013-01-06 13:12:00,
2013-01-06 07:17:00,14.3,10.9,30.17,WNW,298,1.0,4.0,86,0.00,,CLR,0.00,VWS V14.01,2013-01-06 13:17:00,
2013-01-06 07:22:00,14.1,10.7,30.17,West,277,0.0,4.0,86,0.00,,CLR,0.00,VWS V14.01,2013-01-06 13:22:00,
2013-01-06 07:27:00,13.5,9.8,30.18,West,270,2.0,4.0,85,0.00,,CLR,0.00,VWS V14.01,2013-01-06 13:27:00,
2013-01-06 07:32:00,12.7,9.6,30.18,West,279,1.0,2.0,87,0.00,,CLR,0.00,VWS V14.01,2013-01-06 13:32:00,
2013-01-06 07:37:00,12.4,9.8,30.18,WNW,283,0.0,2.0,89,0.00,,CLR,0.00,VWS V14.01,2013-01-06 13:37:00,
2013-01-06 07:42:00,12.1,9.5,30.18,WNW,282,0.0,2.0,89,0.00,,CLR,0.00,VWS V14.01,2013-01-06 13:42:00,
2013-01-06 07:47:00,11.8,9.4,30.18,WSW,256,0.0,2.0,90,0.00,,CLR,0.00,VWS V14.01,2013-01-06 13:47:00,
2013-01-06 07:52:00,11.7,9.3,30.19,West,277,1.0,2.0,90,0.00,,CLR,0.00,VWS V14.01,2013-01-06 13:52:00,
2013-01-06 07:57:00,11.7,9.6,30.19,West,274,0.0,2.0,91,0.00,,CLR,0.00,VWS V14.01,2013-01-06 13:57:00,
2013-01-06 08:02:00,11.5,9.4,30.19,West,274,0.0,0.0,91,0.00,,CLR,0.00,VWS V14.01,2013-01-06 14:02:00,
2013-01-06 08:07:00,11.5,9.4,30.20,West,271,0.0,1.0,91,0.00,,CLR,0.00,VWS V14.01,2013-01-06 14:07:00,
2013-01-06 08:12:00,11.4,9.3,30.20,West,259,1.0,1.0,91,0.00,,CLR,0.00,VWS V14.01,2013-01-06 14:12:00,
2013-01-06 08:17:00,11.4,9.3,30.20,West,276,2.0,2.0,91,0.00,,CLR,0.00,VWS V14.01,2013-01-06 14:17:00,
2013-01-06 08:22:00,11.4,9.3,30.20,West,272,1.0,3.0,91,0.00,,CLR,0.00,VWS V14.01,2013-01-06 14:22:00,
2013-01-06 08:27:00,11.5,9.4,30.20,West,277,1.0,3.0,91,0.00,,CLR,0.00,VWS V14.01,2013-01-06 14:27:00,
2013-01-06 08:32:00,11.5,9.4,30.20,West,270,1.0,2.0,91,0.00,,CLR,0.00,VWS V14.01,2013-01-06 14:32:00,
2013-01-06 08:37:00,11.5,9.4,30.20,West,275,1.0,2.0,91,0.00,,CLR,0.00,VWS V14.01,2013-01-06 14:37:00,
2013-01-06 08:42:00,11.5,9.1,30.21,West,280,2.0,2.0,90,0.00,,CLR,0.00,VWS V14.01,2013-01-06 14:42:00,
2013-01-06 08:47:00,11.5,9.1,30.21,West,276,2.0,2.0,90,0.00,,CLR,0.00,VWS V14.01,2013-01-06 14:47:00,
2013-01-06 08:52:00,11.7,9.3,30.21,West,280,0.0,2.0,90,0.00,,CLR,0.00,VWS V14.01,2013-01-06 14:52:00,
2013-01-06 08:57:00,11.8,9.2,30.21,West,281,1.0,2.0,89,0.00,,CLR,0.00,VWS V14.01,2013-01-06 14:57:00,
2013-01-06 09:02:00,11.8,9.2,30.21,WNW,285,3.0,3.0,89,0.00,,CLR,0.00,VWS V14.01,2013-01-06 15:02:00,
2013-01-06 09:07:00,11.9,9.0,30.21,West,278,0.0,3.0,88,0.00,,CLR,0.00,VWS V14.01,2013-01-06 15:07:00,
2013-01-06 09:12:00,12.0,8.9,30.21,WNW,288,0.0,3.0,87,0.00,,CLR,0.00,VWS V14.01,2013-01-06 15:12:00,
2013-01-06 09:17:00,12.3,9.2,30.21,WNW,288,0.0,3.0,87,0.00,,CLR,0.00,VWS V14.01,2013-01-06 15:17:00,
2013-01-06 09:22:00,12.6,9.2,30.21,WNW,288,0.0,3.0,86,0.00,,CLR,0.00,VWS V14.01,2013-01-06 15:22:00,
2013-01-06 09:27:00,12.9,9.5,30.21,WNW,290,0.0,3.0,86,0.00,,CLR,0.00,VWS V14.01,2013-01-06 15:27:00,
2013-01-06 09:32:00,13.1,9.4,30.21,West,269,0.0,1.0,85,0.00,,CLR,0.00,VWS V14.01,2013-01-06 15:32:00,
2013-01-06 09:37:00,13.3,9.6,30.21,West,281,1.0,1.0,85,0.00,,CLR,0.00,VWS V14.01,2013-01-06 15:37:00,
2013-01-06 09:42:00,13.6,9.7,30.21,WNW,291,0.0,2.0,84,0.00,,CLR,0.00,VWS V14.01,2013-01-06 15:42:00,
2013-01-06 09:47:00,13.9,10.0,30.22,WNW,297,1.0,2.0,84,0.00,,CLR,0.00,VWS V14.01,2013-01-06 15:47:00,
2013-01-06 09:52:00,14.2,10.0,30.22,WNW,297,1.0,2.0,83,0.00,,CLR,0.00,VWS V14.01,2013-01-06 15:52:00,
2013-01-06 09:57:00,14.4,9.9,30.22,WNW,291,1.0,2.0,82,0.00,,CLR,0.00,VWS V14.01,2013-01-06 15:57:00,
2013-01-06 10:02:00,14.5,10.0,30.23,WNW,290,1.0,3.0,82,0.00,,CLR,0.00,VWS V14.01,2013-01-06 16:02:00,
2013-01-06 10:07:00,14.7,10.2,30.23,West,276,1.0,3.0,82,0.00,,CLR,0.00,VWS V14.01,2013-01-06 16:07:00,
2013-01-06 10:12:00,15.0,10.2,30.23,WNW,288,0.0,3.0,81,0.00,,CLR,0.00,VWS V14.01,2013-01-06 16:12:00,
2013-01-06 10:17:00,15.1,10.1,30.23,WNW,296,1.0,3.0,80,0.00,,CLR,0.00,VWS V14.01,2013-01-06 16:17:00,
2013-01-06 10:22:00,15.4,10.4,30.23,WNW,297,2.0,3.0,80,0.00,,CLR,0.00,VWS V14.01,2013-01-06 16:22:00,
2013-01-06 10:27:00,15.5,10.4,30.23,West,277,1.0,3.0,80,0.00,,CLR,0.00,VWS V14.01,2013-01-06 16:27:00,
2013-01-06 10:32:00,15.7,10.6,30.23,WNW,286,0.0,1.0,80,0.00,,CLR,0.00,VWS V14.01,2013-01-06 16:32:00,
2013-01-06 10:37:00,16.0,10.6,30.23,WNW,284,0.0,1.0,79,0.00,,CLR,0.00,VWS V14.01,2013-01-06 16:37:00,
2013-01-06 10:42:00,16.2,10.8,30.23,WNW,298,0.0,2.0,79,0.00,,CLR,0.00,VWS V14.01,2013-01-06 16:42:00,
2013-01-06 10:47:00,16.4,10.8,30.23,WNW,288,1.0,2.0,78,0.00,,CLR,0.00,VWS V14.01,2013-01-06 16:47:00,
2013-01-06 10:52:00,16.5,10.9,30.23,West,276,2.0,2.0,78,0.00,,CLR,0.00,VWS V14.01,2013-01-06 16:52:00,
2013-01-06 10:57:00,16.4,10.8,30.23,WNW,289,1.0,3.0,78,0.00,,CLR,0.00,VWS V14.01,2013-01-06 16:57:00,
2013-01-06 11:02:00,16.5,10.6,30.23,WNW,295,1.0,2.0,77,0.00,,CLR,0.00,VWS V14.01,2013-01-06 17:02:00,
2013-01-06 11:07:00,16.7,11.1,30.23,WNW,293,1.0,2.0,78,0.00,,CLR,0.00,VWS V14.01,2013-01-06 17:07:00,
2013-01-06 11:12:00,16.9,10.9,30.23,WNW,284,0.0,2.0,77,0.00,,CLR,0.00,VWS V14.01,2013-01-06 17:12:00,
2013-01-06 11:17:00,17.2,11.2,30.23,WNW,291,1.0,2.0,77,0.00,,CLR,0.00,VWS V14.01,2013-01-06 17:17:00,
2013-01-06 11:22:00,17.3,11.1,30.23,WNW,290,1.0,4.0,76,0.00,,CLR,0.00,VWS V14.01,2013-01-06 17:22:00,
2013-01-06 11:27:00,17.3,11.1,30.23,WNW,284,1.0,4.0,76,0.00,,CLR,0.00,VWS V14.01,2013-01-06 17:27:00,
2013-01-06 11:32:00,17.2,10.6,30.23,WNW,287,2.0,4.0,75,0.00,,CLR,0.00,VWS V14.01,2013-01-06 17:32:00,
2013-01-06 11:37:00,17.1,10.3,30.23,West,262,3.0,6.0,74,0.00,,CLR,0.00,VWS V14.01,2013-01-06 17:37:00,
2013-01-06 11:42:00,17.2,10.6,30.22,West,274,2.0,6.0,75,0.00,,CLR,0.00,VWS V14.01,2013-01-06 17:42:00,
2013-01-06 11:47:00,17.1,10.3,30.22,WNW,285,2.0,6.0,74,0.00,,CLR,0.00,VWS V14.01,2013-01-06 17:47:00,
2013-01-06 11:52:00,17.4,10.6,30.22,WSW,256,1.0,6.0,74,0.00,,CLR,0.00,VWS V14.01,2013-01-06 17:52:00,
2013-01-06 11:57:00,17.6,10.7,30.22,West,264,2.0,6.0,74,0.00,,CLR,0.00,VWS V14.01,2013-01-06 17:57:00,
2013-01-06 12:02:00,17.8,10.9,30.22,WSW,252,1.0,3.0,74,0.00,,CLR,0.00,VWS V14.01,2013-01-06 18:02:00,
2013-01-06 12:07:00,18.0,10.8,30.21,SSW,204,1.0,3.0,73,0.00,,CLR,0.00,VWS V14.01,2013-01-06 18:07:00,
2013-01-06 12:12:00,18.3,10.8,30.21,SW,235,1.0,3.0,72,0.00,,CLR,0.00,VWS V14.01,2013-01-06 18:12:00,
2013-01-06 12:17:00,18.5,11.0,30.22,West,263,2.0,3.0,72,0.00,,CLR,0.00,VWS V14.01,2013-01-06 18:17:00,
2013-01-06 12:22:00,18.6,11.1,30.22,WSW,252,3.0,5.0,72,0.00,,CLR,0.00,VWS V14.01,2013-01-06 18:22:00,
2013-01-06 12:27:00,18.5,10.7,30.22,WSW,242,2.0,5.0,71,0.00,,CLR,0.00,VWS V14.01,2013-01-06 18:27:00,
2013-01-06 12:32:00,18.6,10.8,30.21,West,271,2.0,5.0,71,0.00,,CLR,0.00,VWS V14.01,2013-01-06 18:32:00,
2013-01-06 12:37:00,18.6,10.5,30.22,West,264,2.0,5.0,70,0.00,,CLR,0.00,VWS V14.01,2013-01-06 18:37:00,
2013-01-06 12:42:00,18.7,10.6,30.21,WNW,283,2.0,5.0,70,0.00,,CLR,0.00,VWS V14.01,2013-01-06 18:42:00,
2013-01-06 12:47:00,18.9,11.1,30.21,SSW,212,0.0,5.0,71,0.00,,CLR,0.00,VWS V14.01,2013-01-06 18:47:00,
2013-01-06 12:52:00,19.5,11.3,30.21,WSW,245,1.0,5.0,70,0.00,,CLR,0.00,VWS V14.01,2013-01-06 18:52:00,
2013-01-06 12:57:00,19.9,11.4,30.21,WSW,255,1.0,5.0,69,0.00,,CLR,0.00,VWS V14.01,2013-01-06 18:57:00,
2013-01-06 13:02:00,20.1,11.2,30.21,SW,217,1.0,2.0,68,0.00,,CLR,0.00,VWS V14.01,2013-01-06 19:02:00,
2013-01-06 13:07:00,20.5,11.6,30.20,WSW,242,1.0,2.0,68,0.00,,CLR,0.00,VWS V14.01,2013-01-06 19:07:00,
2013-01-06 13:12:00,20.7,11.5,30.20,WSW,242,1.0,2.0,67,0.00,,CLR,0.00,VWS V14.01,2013-01-06 19:12:00,
2013-01-06 13:17:00,20.9,11.3,30.20,WSW,240,1.0,3.0,66,0.00,,CLR,0.00,VWS V14.01,2013-01-06 19:17:00,
2013-01-06 13:22:00,20.9,11.3,30.20,WSW,249,1.0,3.0,66,0.00,,CLR,0.00,VWS V14.01,2013-01-06 19:22:00,
2013-01-06 13:27:00,20.8,10.9,30.21,WSW,255,3.0,5.0,65,0.00,,CLR,0.00,VWS V14.01,2013-01-06 19:27:00,
2013-01-06 13:32:00,20.7,11.1,30.20,West,266,3.0,4.0,66,0.00,,CLR,0.00,VWS V14.01,2013-01-06 19:32:00,
2013-01-06 13:37:00,20.7,11.1,30.20,WSW,252,1.0,4.0,66,0.00,,CLR,0.00,VWS V14.01,2013-01-06 19:37:00,
2013-01-06 13:42:00,20.5,10.6,30.20,West,271,2.0,4.0,65,0.00,,CLR,0.00,VWS V14.01,2013-01-06 19:42:00,
2013-01-06 13:47:00,20.3,10.8,30.20,West,264,3.0,4.0,66,0.00,,CLR,0.00,VWS V14.01,2013-01-06 19:47:00,
2013-01-06 13:52:00,20.2,10.3,30.20,West,273,3.0,5.0,65,0.00,,CLR,0.00,VWS V14.01,2013-01-06 19:52:00,
2013-01-06 13:58:00,20.1,10.6,30.20,West,271,3.0,5.0,66,0.00,,CLR,0.00,VWS V14.01,2013-01-06 19:58:00,
2013-01-06 14:03:00,20.3,10.8,30.20,WSW,240,2.0,4.0,66,0.00,,CLR,0.00,VWS V14.01,2013-01-06 20:03:00,
2013-01-06 14:08:00,20.6,11.1,30.21,West,281,2.0,4.0,66,0.00,,CLR,0.00,VWS V14.01,2013-01-06 20:08:00,
2013-01-06 14:11:00,20.7,11.1,30.21,SW,222,1.0,4.0,66,0.00,,CLR,0.00,VWS V14.01,2013-01-06 20:11:00,
2013-01-06 14:13:00,20.9,11.3,30.21,West,278,3.0,4.0,66,0.00,,CLR,0.00,VWS V14.01,2013-01-06 20:13:00,
2013-01-06 14:18:00,21.1,11.5,30.21,West,266,1.0,4.0,66,0.00,,CLR,0.00,VWS V14.01,2013-01-06 20:18:00,
2013-01-06 14:23:00,21.3,11.7,30.21,West,276,1.0,4.0,66,0.00,,CLR,0.00,VWS V14.01,2013-01-06 20:23:00,
2013-01-06 14:28:00,21.4,11.5,30.21,West,278,3.0,4.0,65,0.00,,CLR,0.00,VWS V14.01,2013-01-06 20:28:00,
2013-01-06 14:33:00,21.5,11.6,30.21,WSW,239,2.0,4.0,65,0.00,,CLR,0.00,VWS V14.01,2013-01-06 20:33:00,
2013-01-06 14:38:00,21.6,11.7,30.22,West,260,3.0,4.0,65,0.00,,CLR,0.00,VWS V14.01,2013-01-06 20:38:00,
2013-01-06 14:43:00,22.0,12.1,30.21,SW,228,1.0,4.0,65,0.00,,CLR,0.00,VWS V14.01,2013-01-06 20:43:00,
2013-01-06 14:48:00,22.6,11.9,30.21,WSW,244,1.0,4.0,63,0.00,,CLR,0.00,VWS V14.01,2013-01-06 20:48:00,
2013-01-06 14:53:00,22.7,11.6,30.21,WSW,248,1.0,4.0,62,0.00,,CLR,0.00,VWS V14.01,2013-01-06 20:53:00,
2013-01-06 14:58:00,22.8,11.8,30.21,WSW,253,2.0,2.0,62,0.00,,CLR,0.00,VWS V14.01,2013-01-06 20:58:00,
2013-01-06 15:01:00,22.7,11.3,30.21,WSW,252,2.0,2.0,61,0.00,,CLR,0.00,VWS V14.01,2013-01-06 21:01:00,
2013-01-06 15:06:00,22.6,11.2,30.21,WSW,252,1.0,3.0,61,0.00,,CLR,0.00,VWS V14.01,2013-01-06 21:06:00,
2013-01-06 15:11:00,22.5,11.5,30.21,WSW,248,1.0,3.0,62,0.00,,CLR,0.00,VWS V14.01,2013-01-06 21:11:00,
2013-01-06 15:16:00,22.4,11.4,30.21,WSW,257,1.0,3.0,62,0.00,,CLR,0.00,VWS V14.01,2013-01-06 21:16:00,
2013-01-06 15:21:00,22.6,11.6,30.21,WSW,250,1.0,3.0,62,0.00,,CLR,0.00,VWS V14.01,2013-01-06 21:21:00,
2013-01-06 15:26:00,22.8,11.8,30.21,WSW,240,1.0,3.0,62,0.00,,CLR,0.00,VWS V14.01,2013-01-06 21:26:00,
2013-01-06 15:31:00,22.9,11.5,30.20,SW,224,1.0,2.0,61,0.00,,CLR,0.00,VWS V14.01,2013-01-06 21:31:00,
2013-01-06 15:36:00,22.8,11.4,30.20,SW,226,0.0,2.0,61,0.00,,CLR,0.00,VWS V14.01,2013-01-06 21:36:00,
2013-01-06 15:41:00,22.7,11.3,30.21,WSW,249,1.0,3.0,61,0.00,,CLR,0.00,VWS V14.01,2013-01-06 21:41:00,
2013-01-06 15:46:00,22.6,11.6,30.21,WSW,241,1.0,3.0,62,0.00,,CLR,0.00,VWS V14.01,2013-01-06 21:46:00,
2013-01-06 15:51:00,22.5,11.5,30.20,WSW,248,0.0,3.0,62,0.00,,CLR,0.00,VWS V14.01,2013-01-06 21:51:00,
2013-01-06 15:56:00,22.3,11.3,30.21,WSW,237,1.0,3.0,62,0.00,,CLR,0.00,VWS V14.01,2013-01-06 21:56:00,
2013-01-06 16:01:00,22.0,11.0,30.21,WSW,252,0.0,2.0,62,0.00,,CLR,0.00,VWS V14.01,2013-01-06 22:01:00,
2013-01-06 16:06:00,21.9,11.2,30.20,WSW,256,1.0,2.0,63,0.00,,CLR,0.00,VWS V14.01,2013-01-06 22:06:00,
2013-01-06 16:11:00,21.7,11.1,30.20,SW,222,0.0,2.0,63,0.00,,CLR,0.00,VWS V14.01,2013-01-06 22:11:00,
2013-01-06 16:16:00,21.9,11.2,30.21,SW,224,0.0,2.0,63,0.00,,CLR,0.00,VWS V14.01,2013-01-06 22:16:00,
2013-01-06 16:21:00,22.2,11.5,30.21,SW,228,0.0,2.0,63,0.00,,CLR,0.00,VWS V14.01,2013-01-06 22:21:00,
2013-01-06 16:26:00,22.3,11.3,30.21,WSW,242,0.0,2.0,62,0.00,,CLR,0.00,VWS V14.01,2013-01-06 22:26:00,
2013-01-06 16:31:00,22.0,11.0,30.21,WSW,242,0.0,1.0,62,0.00,,CLR,0.00,VWS V14.01,2013-01-06 22:31:00,
2013-01-06 16:36:00,21.7,11.1,30.20,SSW,204,0.0,2.0,63,0.00,,CLR,0.00,VWS V14.01,2013-01-06 22:36:00,
2013-01-06 16:41:00,21.6,11.3,30.20,SSE,160,1.0,3.0,64,0.00,,CLR,0.00,VWS V14.01,2013-01-06 22:41:00,
2013-01-06 16:46:00,21.3,11.0,30.20,South,186,2.0,3.0,64,0.00,,CLR,0.00,VWS V14.01,2013-01-06 22:46:00,
2013-01-06 16:51:00,21.2,11.3,30.20,SSW,198,1.0,3.0,65,0.00,,CLR,0.00,VWS V14.01,2013-01-06 22:51:00,
2013-01-06 16:56:00,20.9,11.3,30.20,SSW,198,1.0,3.0,66,0.00,,CLR,0.00,VWS V14.01,2013-01-06 22:56:00,
2013-01-06 17:01:00,20.7,11.1,30.20,SSW,201,1.0,2.0,66,0.00,,CLR,0.00,VWS V14.01,2013-01-06 23:01:00,
2013-01-06 17:06:00,20.5,11.3,30.20,SW,222,2.0,2.0,67,0.00,,CLR,0.00,VWS V14.01,2013-01-06 23:06:00,
2013-01-06 17:11:00,20.4,11.2,30.20,SW,222,1.0,2.0,67,0.00,,CLR,0.00,VWS V14.01,2013-01-06 23:11:00,
2013-01-06 17:16:00,20.1,10.9,30.20,SW,226,1.0,2.0,67,0.00,,CLR,0.00,VWS V14.01,2013-01-06 23:16:00,
2013-01-06 17:21:00,19.9,10.7,30.19,SW,223,0.0,2.0,67,0.00,,CLR,0.00,VWS V14.01,2013-01-06 23:21:00,
2013-01-06 17:26:00,19.7,10.9,30.19,SW,222,1.0,2.0,68,0.00,,CLR,0.00,VWS V14.01,2013-01-06 23:26:00,
2013-01-06 17:31:00,19.6,10.8,30.19,SW,221,1.0,1.0,68,0.00,,CLR,0.00,VWS V14.01,2013-01-06 23:31:00,
2013-01-06 17:36:00,19.3,10.8,30.19,SW,221,1.0,1.0,69,0.00,,CLR,0.00,VWS V14.01,2013-01-06 23:36:00,
2013-01-06 17:41:00,19.2,10.7,30.19,SW,221,0.0,1.0,69,0.00,,CLR,0.00,VWS V14.01,2013-01-06 23:41:00,
2013-01-06 17:46:00,19.1,10.9,30.18,SSW,212,1.0,1.0,70,0.00,,CLR,0.00,VWS V14.01,2013-01-06 23:46:00,
2013-01-06 17:51:00,19.0,10.8,30.19,SSW,210,1.0,1.0,70,0.00,,CLR,0.00,VWS V14.01,2013-01-06 23:51:00,
2013-01-06 17:56:00,18.9,10.8,30.19,SSW,208,1.0,1.0,70,0.00,,CLR,0.00,VWS V14.01,2013-01-06 23:56:00,
2013-01-06 18:01:00,18.7,10.9,30.19,SSW,207,1.0,1.0,71,0.00,,CLR,0.00,VWS V14.01,2013-01-07 00:01:00,
2013-01-06 18:06:00,18.6,10.8,30.19,SSW,207,1.0,1.0,71,0.00,,CLR,0.00,VWS V14.01,2013-01-07 00:06:00,
2013-01-06 18:11:00,18.4,10.6,30.19,SW,219,1.0,1.0,71,0.00,,CLR,0.00,VWS V14.01,2013-01-07 00:11:00,
2013-01-06 18:16:00,18.2,10.7,30.18,SSW,212,1.0,1.0,72,0.00,,CLR,0.00,VWS V14.01,2013-01-07 00:16:00,
2013-01-06 18:21:00,18.0,10.5,30.18,SSW,208,1.0,1.0,72,0.00,,CLR,0.00,VWS V14.01,2013-01-07 00:21:00,
2013-01-06 18:26:00,17.9,10.7,30.18,SSW,205,1.0,1.0,73,0.00,,CLR,0.00,VWS V14.01,2013-01-07 00:26:00,
2013-01-06 18:31:00,17.7,10.5,30.18,SSW,205,1.0,1.0,73,0.00,,CLR,0.00,VWS V14.01,2013-01-07 00:31:00,
2013-01-06 18:36:00,17.6,10.4,30.19,SW,225,1.0,2.0,73,0.00,,CLR,0.00,VWS V14.01,2013-01-07 00:36:00,
2013-01-06 18:41:00,17.3,10.1,30.19,SW,224,1.0,2.0,73,0.00,,CLR,0.00,VWS V14.01,2013-01-07 00:41:00,
2013-01-06 18:46:00,17.1,10.3,30.19,SW,219,0.0,2.0,74,0.00,,CLR,0.00,VWS V14.01,2013-01-07 00:46:00,
2013-01-06 18:51:00,16.9,10.1,30.19,SW,219,0.0,2.0,74,0.00,,CLR,0.00,VWS V14.01,2013-01-07 00:51:00,
2013-01-06 18:56:00,16.7,10.2,30.19,SW,231,1.0,2.0,75,0.00,,CLR,0.00,VWS V14.01,2013-01-07 00:56:00,
2013-01-06 19:01:00,16.5,10.0,30.19,SW,222,1.0,1.0,75,0.00,,CLR,0.00,VWS V14.01,2013-01-07 01:01:00,
2013-01-06 19:06:00,16.4,10.2,30.18,SW,222,2.0,2.0,76,0.00,,CLR,0.00,VWS V14.01,2013-01-07 01:06:00,
2013-01-06 19:11:00,16.2,10.0,30.18,SW,225,1.0,2.0,76,0.00,,CLR,0.00,VWS V14.01,2013-01-07 01:11:00,
2013-01-06 19:16:00,16.2,10.0,30.19,SW,222,1.0,2.0,76,0.00,,CLR,0.00,VWS V14.01,2013-01-07 01:16:00,
2013-01-06 19:21:00,16.1,9.9,30.19,SW,215,1.0,2.0,76,0.00,,CLR,0.00,VWS V14.01,2013-01-07 01:21:00,
2013-01-06 19:26:00,16.0,10.1,30.19,SW,228,1.0,2.0,77,0.00,,CLR,0.00,VWS V14.01,2013-01-07 01:26:00,
2013-01-06 19:31:00,15.9,10.0,30.19,SW,219,1.0,2.0,77,0.00,,CLR,0.00,VWS V14.01,2013-01-07 01:31:00,
2013-01-06 19:36:00,15.6,9.7,30.18,SSW,198,1.0,2.0,77,0.00,,CLR,0.00,VWS V14.01,2013-01-07 01:36:00,
2013-01-06 19:41:00,15.5,9.9,30.18,South,176,1.0,2.0,78,0.00,,CLR,0.00,VWS V14.01,2013-01-07 01:41:00,
2013-01-06 19:46:00,15.4,9.8,30.17,SSW,204,1.0,2.0,78,0.00,,CLR,0.00,VWS V14.01,2013-01-07 01:46:00,
2013-01-06 19:51:00,15.3,10.0,30.17,South,172,2.0,3.0,79,0.00,,CLR,0.00,VWS V14.01,2013-01-07 01:51:00,
2013-01-06 19:56:00,15.2,9.9,30.17,South,169,2.0,3.0,79,0.00,,CLR,0.00,VWS V14.01,2013-01-07 01:56:00,
2013-01-06 20:01:00,15.1,9.8,30.17,SSW,203,1.0,4.0,79,0.00,,CLR,0.00,VWS V14.01,2013-01-07 02:01:00,
2013-01-06 20:06:00,15.1,9.8,30.16,SSW,193,2.0,4.0,79,0.00,,CLR,0.00,VWS V14.01,2013-01-07 02:06:00,
2013-01-06 20:11:00,15.1,9.8,30.16,South,177,3.0,4.0,79,0.00,,CLR,0.00,VWS V14.01,2013-01-07 02:11:00,
2013-01-06 20:16:00,15.0,9.7,30.16,SSE,151,2.0,4.0,79,0.00,,CLR,0.00,VWS V14.01,2013-01-07 02:16:00,
2013-01-06 20:21:00,14.9,9.6,30.16,SSE,148,1.0,4.0,79,0.00,,CLR,0.00,VWS V14.01,2013-01-07 02:21:00,
2013-01-06 20:26:00,14.7,9.4,30.15,SSE,150,1.0,4.0,79,0.00,,CLR,0.00,VWS V14.01,2013-01-07 02:26:00,
2013-01-06 20:31:00,14.5,9.5,30.15,South,176,2.0,2.0,80,0.00,,CLR,0.00,VWS V14.01,2013-01-07 02:31:00,
2013-01-06 20:36:00,14.3,9.3,30.15,South,169,2.0,4.0,80,0.00,,CLR,0.00,VWS V14.01,2013-01-07 02:36:00,
2013-01-06 20:41:00,14.1,9.1,30.14,SE,138,3.0,4.0,80,0.00,,CLR,0.00,VWS V14.01,2013-01-07 02:41:00,
2013-01-06 20:46:00,14.0,9.3,30.13,SSE,162,2.0,5.0,81,0.00,,CLR,0.00,VWS V14.01,2013-01-07 02:46:00,
2013-01-06 20:51:00,13.9,9.2,30.12,SE,140,4.0,5.0,81,0.00,,CLR,0.00,VWS V14.01,2013-01-07 02:51:00,
2013-01-06 20:56:00,14.0,9.5,30.12,SE,132,2.0,6.0,82,0.00,,CLR,0.00,VWS V14.01,2013-01-07 02:56:00,
2013-01-06 21:01:00,14.1,9.6,30.12,SE,145,1.0,9.0,82,0.00,,CLR,0.00,VWS V14.01,2013-01-07 03:01:00,
2013-01-06 21:06:00,14.0,9.8,30.12,South,179,5.0,9.0,83,0.00,,CLR,0.00,VWS V14.01,2013-01-07 03:06:00,
2013-01-06 21:11:00,14.1,9.9,30.11,South,176,5.0,9.0,83,0.00,,CLR,0.00,VWS V14.01,2013-01-07 03:11:00,
2013-01-06 21:16:00,14.1,9.9,30.11,South,170,4.0,9.0,83,0.00,,CLR,0.00,VWS V14.01,2013-01-07 03:16:00,
2013-01-06 21:21:00,14.2,10.0,30.11,SSE,150,3.0,9.0,83,0.00,,CLR,0.00,VWS V14.01,2013-01-07 03:21:00,
2013-01-06 21:26:00,14.2,10.0,30.11,SSE,156,4.0,9.0,83,0.00,,CLR,0.00,VWS V14.01,2013-01-07 03:26:00,
2013-01-06 21:31:00,14.3,10.4,30.10,SSE,152,5.0,9.0,84,0.00,,CLR,0.00,VWS V14.01,2013-01-07 03:31:00,
2013-01-06 21:36:00,14.4,10.5,30.10,SE,140,4.0,9.0,84,0.00,,CLR,0.00,VWS V14.01,2013-01-07 03:36:00,
2013-01-06 21:41:00,14.4,10.5,30.10,SSE,163,4.0,9.0,84,0.00,,CLR,0.00,VWS V14.01,2013-01-07 03:41:00,
2013-01-06 21:46:00,14.4,10.2,30.10,South,183,4.0,9.0,83,0.00,,CLR,0.00,VWS V14.01,2013-01-07 03:46:00,
2013-01-06 21:51:00,14.5,10.3,30.10,SSW,207,4.0,9.0,83,0.00,,CLR,0.00,VWS V14.01,2013-01-07 03:51:00,
2013-01-06 21:56:00,14.5,10.3,30.11,SSW,211,2.0,9.0,83,0.00,,CLR,0.00,VWS V14.01,2013-01-07 03:56:00,
2013-01-06 22:01:00,14.4,10.5,30.11,SW,215,6.0,6.0,84,0.00,,CLR,0.00,VWS V14.01,2013-01-07 04:01:00,
2013-01-06 22:06:00,14.5,10.6,30.10,South,170,2.0,8.0,84,0.00,,CLR,0.00,VWS V14.01,2013-01-07 04:06:00,
2013-01-06 22:11:00,14.4,10.5,30.10,SSE,166,2.0,8.0,84,0.00,,CLR,0.00,VWS V14.01,2013-01-07 04:11:00,
2013-01-06 22:16:00,14.4,10.5,30.09,SE,127,2.0,8.0,84,0.00,,CLR,0.00,VWS V14.01,2013-01-07 04:16:00,
2013-01-06 22:21:00,14.5,10.8,30.08,SE,146,4.0,8.0,85,0.00,,CLR,0.00,VWS V14.01,2013-01-07 04:21:00,
2013-01-06 22:26:00,14.6,10.9,30.08,SE,145,4.0,9.0,85,0.00,,CLR,0.00,VWS V14.01,2013-01-07 04:26:00,
2013-01-06 22:31:00,14.7,11.0,30.08,SSE,150,4.0,7.0,85,0.00,,CLR,0.00,VWS V14.01,2013-01-07 04:31:00,
2013-01-06 22:36:00,14.8,11.1,30.07,SE,145,6.0,11.0,85,0.00,,CLR,0.00,VWS V14.01,2013-01-07 04:36:00,
2013-01-06 22:41:00,14.9,11.2,30.07,SSE,162,3.0,11.0,85,0.00,,CLR,0.00,VWS V14.01,2013-01-07 04:41:00,
2013-01-06 22:46:00,15.0,11.6,30.06,SSE,160,3.0,11.0,86,0.00,,CLR,0.00,VWS V14.01,2013-01-07 04:46:00,
2013-01-06 22:51:00,15.0,11.6,30.06,South,176,3.0,11.0,86,0.00,,CLR,0.00,VWS V14.01,2013-01-07 04:51:00,
2013-01-06 22:56:00,15.1,11.7,30.06,SE,138,6.0,11.0,86,0.00,,CLR,0.00,VWS V14.01,2013-01-07 04:56:00,
2013-01-06 23:00:00,15.1,11.7,30.05,SE,146,4.0,9.0,86,0.00,,CLR,0.00,VWS V14.01,2013-01-07 05:00:00,
2013-01-06 23:01:00,15.1,11.7,30.05,South,187,6.0,9.0,86,0.00,,CLR,0.00,VWS V14.01,2013-01-07 05:01:00,
2013-01-06 23:02:00,15.1,11.7,30.05,SE,139,8.0,9.0,86,0.00,,CLR,0.00,VWS V14.01,2013-01-07 05:02:00,
2013-01-06 23:07:00,15.1,11.7,30.05,South,190,4.0,10.0,86,0.00,,CLR,0.00,VWS V14.01,2013-01-07 05:07:00,
2013-01-06 23:12:00,15.1,11.7,30.05,SSW,202,4.0,10.0,86,0.00,,CLR,0.00,VWS V14.01,2013-01-07 05:12:00,
2013-01-06 23:17:00,15.1,11.7,30.04,SE,131,6.0,10.0,86,0.00,,CLR,0.00,VWS V14.01,2013-01-07 05:17:00,
2013-01-06 23:22:00,15.1,11.7,30.04,SSW,210,5.0,10.0,86,0.00,,CLR,0.00,VWS V14.01,2013-01-07 05:22:00,
2013-01-06 23:27:00,15.2,11.8,30.04,SSW,197,6.0,11.0,86,0.00,,CLR,0.00,VWS V14.01,2013-01-07 05:27:00,
2013-01-06 23:32:00,15.2,11.8,30.04,SSW,200,5.0,10.0,86,0.00,,CLR,0.00,VWS V14.01,2013-01-07 05:32:00,
2013-01-06 23:37:00,15.4,12.0,30.05,South,175,7.0,12.0,86,0.00,,CLR,0.00,VWS V14.01,2013-01-07 05:37:00,
2013-01-06 23:42:00,15.5,12.1,30.03,SSE,153,4.0,12.0,86,0.00,,CLR,0.00,VWS V14.01,2013-01-07 05:42:00,
2013-01-06 23:47:00,15.6,12.2,30.03,South,188,11.0,14.0,86,0.00,,CLR,0.00,VWS V14.01,2013-01-07 05:47:00,
2013-01-06 23:52:00,15.8,12.4,30.03,South,180,6.0,17.0,86,0.00,,CLR,0.00,VWS V14.01,2013-01-07 05:52:00,
2013-01-06 23:57:00,15.9,12.5,30.03,SSE,158,5.0,17.0,86,0.00,,CLR,0.00,VWS V14.01,2013-01-07 05:57:00,